createdAt,value
2022-07-28T00:00:44.099Z,4.13
2022-07-28T00:03:10.914Z,4.50
2022-07-28T00:05:37.859Z,5.00
2022-07-28T00:08:05.328Z,6.90
2022-07-28T00:10:32.373Z,4.30
2022-07-28T00:12:59.948Z,4.38
2022-07-28T00:15:28.014Z,6.40
2022-07-28T00:17:54.818Z,4.30
2022-07-28T00:20:21.693Z,6.43
2022-07-28T00:22:48.420Z,5.80
2022-07-28T00:25:15.284Z,5.25
2022-07-28T00:27:42.159Z,4.22
2022-07-28T00:30:10.053Z,5.05
2022-07-28T00:32:37.693Z,4.78
2022-07-28T00:35:05.098Z,4.22
2022-07-28T00:37:39.720Z,5.57
2022-07-28T00:40:08.415Z,4.15
2022-07-28T00:42:35.132Z,4.57
2022-07-28T00:45:01.910Z,5.32
2022-07-28T00:47:33.535Z,4.40
2022-07-28T00:50:01.924Z,4.68
2022-07-28T00:52:28.807Z,4.78
2022-07-28T00:54:56.051Z,7.68
2022-07-28T00:57:22.749Z,4.70
2022-07-28T00:59:49.547Z,4.65
2022-07-28T01:02:16.546Z,6.30
2022-07-28T01:04:43.462Z,4.10
2022-07-28T01:07:35.338Z,5.13
2022-07-28T01:10:36.170Z,6.57
2022-07-28T01:13:20.753Z,4.88
2022-07-28T01:16:03.032Z,4.70
2022-07-28T01:18:36.210Z,5.68
2022-07-28T01:21:09.042Z,4.60
2022-07-28T01:23:54.193Z,4.38
2022-07-28T01:26:30.157Z,5.00
2022-07-28T01:29:09.037Z,5.00
2022-07-28T01:31:52.125Z,5.45
2022-07-28T01:34:25.799Z,5.13
2022-07-28T01:36:58.220Z,5.03
2022-07-28T01:39:29.147Z,5.13
2022-07-28T01:41:58.170Z,4.10
2022-07-28T01:44:26.574Z,5.57
2022-07-28T01:46:54.602Z,4.25
2022-07-28T01:49:23.074Z,4.40
2022-07-28T01:51:51.284Z,6.65
2022-07-28T01:54:22.010Z,11.15
2022-07-28T01:56:50.965Z,6.10
2022-07-28T01:59:19.305Z,4.07
2022-07-28T02:01:48.533Z,4.38
2022-07-28T02:04:21.210Z,6.75
2022-07-28T02:06:49.185Z,4.15
2022-07-28T02:09:18.312Z,3.92
2022-07-28T02:11:47.772Z,4.78
2022-07-28T02:14:18.903Z,5.18
2022-07-28T02:16:49.020Z,5.05
2022-07-28T02:19:18.352Z,5.60
2022-07-28T02:21:47.757Z,4.75
2022-07-28T02:24:17.585Z,6.55
2022-07-28T02:26:50.479Z,4.40
2022-07-28T02:29:48.112Z,5.47
2022-07-28T02:32:30.151Z,4.53
2022-07-28T02:35:01.944Z,5.38
2022-07-28T02:37:37.517Z,5.22
2022-07-28T02:40:08.659Z,5.47
2022-07-28T02:42:36.919Z,4.97
2022-07-28T02:45:07.148Z,4.47
2022-07-28T02:47:40.084Z,4.78
2022-07-28T02:50:08.461Z,5.63
2022-07-28T02:52:36.333Z,4.30
2022-07-28T02:55:03.949Z,5.13
2022-07-28T02:57:31.190Z,4.22
2022-07-28T02:59:58.729Z,4.65
2022-07-28T03:02:26.036Z,5.00
2022-07-28T03:04:59.699Z,4.15
2022-07-28T03:07:31.433Z,6.88
2022-07-28T03:09:59.697Z,4.30
2022-07-28T03:12:26.882Z,9.00
2022-07-28T03:14:53.970Z,4.50
2022-07-28T03:17:20.852Z,4.80
2022-07-28T03:19:47.636Z,4.75
2022-07-28T03:22:14.946Z,6.20
2022-07-28T03:24:51.985Z,5.30
2022-07-28T03:27:31.119Z,5.05
2022-07-28T03:30:08.305Z,5.07
2022-07-28T03:32:40.331Z,4.97
2022-07-28T03:35:07.705Z,5.13
2022-07-28T03:37:43.582Z,5.30
2022-07-28T03:40:12.377Z,4.65
2022-07-28T03:42:40.966Z,5.32
2022-07-28T03:45:08.359Z,5.65
2022-07-28T03:47:35.031Z,4.53
2022-07-28T03:50:01.750Z,5.68
2022-07-28T03:52:28.480Z,5.50
2022-07-28T03:54:55.162Z,7.57
2022-07-28T03:57:22.714Z,5.90
2022-07-28T03:59:49.470Z,6.30
2022-07-28T04:02:16.257Z,5.07
2022-07-28T04:04:43.066Z,4.50
2022-07-28T04:07:09.763Z,7.82
2022-07-28T04:09:36.447Z,5.55
2022-07-28T04:12:03.175Z,5.15
2022-07-28T04:14:29.910Z,4.72
2022-07-28T04:16:56.751Z,4.93
2022-07-28T04:19:23.504Z,5.82
2022-07-28T04:21:50.255Z,5.05
2022-07-28T04:24:17.224Z,6.40
2022-07-28T04:26:44.371Z,5.90
2022-07-28T04:29:11.181Z,4.68
2022-07-28T04:31:38.071Z,4.45
2022-07-28T04:34:04.828Z,5.65
2022-07-28T04:36:32.356Z,4.03
2022-07-28T04:38:59.412Z,5.13
2022-07-28T04:41:27.253Z,6.80
2022-07-28T04:43:53.982Z,5.20
2022-07-28T04:46:20.793Z,8.63
2022-07-28T04:48:47.668Z,5.53
2022-07-28T04:51:14.515Z,5.32
2022-07-28T04:53:41.325Z,6.28
2022-07-28T04:56:08.040Z,5.93
2022-07-28T04:58:35.368Z,5.43
2022-07-28T05:01:02.252Z,5.78
2022-07-28T05:03:32.806Z,7.35
2022-07-28T05:06:02.626Z,7.95
2022-07-28T05:08:29.307Z,7.47
2022-07-28T05:10:56.633Z,5.50
2022-07-28T05:13:24.197Z,5.65
2022-07-28T05:15:51.208Z,6.20
2022-07-28T05:18:18.168Z,6.72
2022-07-28T05:20:44.857Z,7.05
2022-07-28T05:23:12.743Z,6.90
2022-07-28T05:25:39.526Z,8.00
2022-07-28T05:28:06.234Z,8.27
2022-07-28T05:30:32.983Z,7.80
2022-07-28T05:33:01.767Z,7.18
2022-07-28T05:35:28.753Z,7.28
2022-07-28T05:37:55.564Z,9.35
2022-07-28T05:40:22.303Z,8.88
2022-07-28T05:42:49.074Z,8.32
2022-07-28T05:45:17.599Z,8.32
2022-07-28T05:47:52.100Z,6.43
2022-07-28T05:50:25.245Z,8.13
2022-07-28T05:52:52.464Z,9.02
2022-07-28T05:55:19.688Z,8.25
2022-07-28T05:57:47.080Z,8.18
2022-07-28T06:00:19.644Z,9.48
2022-07-28T06:05:16.995Z,7.90
2022-07-28T06:07:45.008Z,8.48
2022-07-28T06:10:14.421Z,10.43
2022-07-28T06:12:46.975Z,8.05
2022-07-28T06:17:41.856Z,9.00
2022-07-28T06:20:09.456Z,8.18
2022-07-28T06:22:48.009Z,8.40
2022-07-28T06:25:16.727Z,8.50
2022-07-28T06:27:48.850Z,9.52
2022-07-28T06:30:16.624Z,9.73
2022-07-28T06:32:43.946Z,8.98
2022-07-28T06:35:13.962Z,11.77
2022-07-28T06:37:41.034Z,10.07
2022-07-28T06:40:08.978Z,9.63
2022-07-28T06:42:35.707Z,11.55
2022-07-28T06:45:02.481Z,8.25
2022-07-28T06:47:29.178Z,8.63
2022-07-28T06:49:55.891Z,9.07
2022-07-28T06:52:22.832Z,11.95
2022-07-28T06:54:51.697Z,9.52
2022-07-28T06:57:20.815Z,8.48
2022-07-28T06:59:48.561Z,8.38
2022-07-28T07:02:16.385Z,9.77
2022-07-28T07:04:45.416Z,7.70
2022-07-28T07:07:16.864Z,6.65
2022-07-28T07:09:44.427Z,6.50
2022-07-28T07:12:11.246Z,9.10
2022-07-28T07:14:38.188Z,7.13
2022-07-28T07:17:04.935Z,5.88
2022-07-28T07:19:31.649Z,6.35
2022-07-28T07:21:58.346Z,6.25
2022-07-28T07:24:25.082Z,10.80
2022-07-28T07:26:51.773Z,7.70
2022-07-28T07:29:19.809Z,6.13
2022-07-28T07:31:46.630Z,5.65
2022-07-28T07:34:19.447Z,9.82
2022-07-28T07:36:46.302Z,5.55
2022-07-28T07:39:13.398Z,7.15
2022-07-28T07:41:40.150Z,4.22
2022-07-28T07:44:06.863Z,6.10
2022-07-28T07:46:33.899Z,6.00
2022-07-28T07:49:00.796Z,4.50
2022-07-28T07:51:28.074Z,4.75
2022-07-28T07:53:54.859Z,4.80
2022-07-28T07:56:21.687Z,5.68
2022-07-28T07:58:53.651Z,6.60
2022-07-28T08:01:23.265Z,7.95
2022-07-28T08:03:50.331Z,4.88
2022-07-28T08:06:17.135Z,5.38
2022-07-28T08:08:53.166Z,6.07
2022-07-28T08:11:19.954Z,6.75
2022-07-28T08:13:46.648Z,4.97
2022-07-28T08:16:13.394Z,5.95
2022-07-28T08:18:40.133Z,6.20
2022-07-28T08:21:06.850Z,5.43
2022-07-28T08:23:33.574Z,5.80
2022-07-28T08:26:00.310Z,8.40
2022-07-28T08:28:27.084Z,7.25
2022-07-28T08:30:53.883Z,7.30
2022-07-28T08:33:21.747Z,6.38
2022-07-28T08:35:49.482Z,6.68
2022-07-28T08:38:16.504Z,7.82
2022-07-28T08:40:48.335Z,6.28
2022-07-28T08:43:30.426Z,6.50
2022-07-28T08:46:01.154Z,7.63
2022-07-28T08:48:31.433Z,8.85
2022-07-28T08:51:06.767Z,6.07
2022-07-28T08:53:35.739Z,5.85
2022-07-28T08:56:05.256Z,8.43
2022-07-28T08:58:34.295Z,6.22
2022-07-28T09:01:01.760Z,6.05
2022-07-28T09:03:29.389Z,5.82
2022-07-28T09:05:57.484Z,5.78
2022-07-28T09:08:24.736Z,5.95
2022-07-28T09:10:51.772Z,5.63
2022-07-28T09:13:19.217Z,6.32
2022-07-28T09:15:47.434Z,4.95
2022-07-28T09:18:15.724Z,6.18
2022-07-28T09:20:44.040Z,7.90
2022-07-28T09:23:43.213Z,7.00
2022-07-28T09:26:11.803Z,5.38
2022-07-28T09:28:55.181Z,5.32
2022-07-28T09:31:23.905Z,6.45
2022-07-28T09:34:04.394Z,8.75
2022-07-28T09:36:38.835Z,5.93
2022-07-28T09:39:06.078Z,5.70
2022-07-28T09:41:49.693Z,6.50
2022-07-28T09:44:19.645Z,7.82
2022-07-28T09:46:46.619Z,5.25
2022-07-28T09:49:13.568Z,4.78
2022-07-28T09:51:40.521Z,6.35
2022-07-28T09:54:13.084Z,4.68
2022-07-28T09:56:45.327Z,5.88
2022-07-28T09:59:13.973Z,7.15
2022-07-28T10:01:55.437Z,4.80
2022-07-28T10:04:43.227Z,4.32
2022-07-28T10:07:14.134Z,5.07
2022-07-28T10:09:41.497Z,8.70
2022-07-28T10:12:21.731Z,4.95
2022-07-28T10:14:51.659Z,4.65
2022-07-28T10:17:26.773Z,4.65
2022-07-28T10:19:55.085Z,5.72
2022-07-28T10:22:23.534Z,4.60
2022-07-28T10:24:53.288Z,5.90
2022-07-28T10:27:25.718Z,4.47
2022-07-28T10:32:22.996Z,5.28
2022-07-28T10:34:55.950Z,6.22
2022-07-28T10:37:25.576Z,6.15
2022-07-28T10:40:09.828Z,4.75
2022-07-28T10:42:39.362Z,4.88
2022-07-28T10:45:08.000Z,5.28
2022-07-28T10:47:35.879Z,5.57
2022-07-28T10:50:04.087Z,4.50
2022-07-28T10:52:46.802Z,4.38
2022-07-28T10:55:39.078Z,4.20
2022-07-28T10:58:27.047Z,6.00
2022-07-28T11:00:58.177Z,3.60
2022-07-28T11:03:44.083Z,4.35
2022-07-28T11:06:36.770Z,3.88
2022-07-28T11:09:15.762Z,4.30
2022-07-28T11:11:50.591Z,3.67
2022-07-28T11:14:26.154Z,4.65
2022-07-28T11:17:10.116Z,4.25
2022-07-28T11:20:07.228Z,3.75
2022-07-28T11:22:32.778Z,4.25
2022-07-28T11:25:19.021Z,4.80
2022-07-28T11:27:50.399Z,4.38
2022-07-28T11:30:28.582Z,5.97
2022-07-28T11:32:55.357Z,4.13
2022-07-28T11:35:26.707Z,6.95
2022-07-28T11:38:02.341Z,3.33
2022-07-28T11:40:33.540Z,3.97
2022-07-28T11:43:35.382Z,3.65
2022-07-28T11:46:07.041Z,4.90
2022-07-28T11:48:40.395Z,4.35
2022-07-28T11:51:07.246Z,3.50
2022-07-28T11:53:39.455Z,4.53
2022-07-28T11:56:22.209Z,3.30
2022-07-28T11:58:59.879Z,3.67
2022-07-28T12:01:27.138Z,6.72
2022-07-28T12:03:56.812Z,3.53
2022-07-28T12:06:35.380Z,3.33
2022-07-28T12:09:06.933Z,3.53
2022-07-28T12:11:36.018Z,5.00
2022-07-28T12:14:05.990Z,4.20
2022-07-28T12:16:34.714Z,4.60
2022-07-28T12:19:02.353Z,3.13
2022-07-28T12:21:46.508Z,3.58
2022-07-28T12:24:19.271Z,2.88
2022-07-28T12:26:49.583Z,3.80
2022-07-28T12:29:20.476Z,3.30
2022-07-28T12:31:55.704Z,2.60
2022-07-28T12:34:26.737Z,4.13
2022-07-28T12:36:58.387Z,2.90
2022-07-28T12:39:25.971Z,6.35
2022-07-28T12:42:06.869Z,4.63
2022-07-28T12:44:37.457Z,3.85
2022-07-28T12:47:07.835Z,2.65
2022-07-28T12:49:36.167Z,3.75
2022-07-28T12:52:23.271Z,3.72
2022-07-28T12:54:54.566Z,3.05
2022-07-28T12:57:54.556Z,3.28
2022-07-28T13:00:27.065Z,2.53
2022-07-28T13:02:56.427Z,3.42
2022-07-28T13:05:30.310Z,3.10
2022-07-28T13:08:05.848Z,6.95
2022-07-28T13:10:33.198Z,3.08
2022-07-28T13:13:05.888Z,3.47
2022-07-28T13:15:32.941Z,3.33
2022-07-28T13:18:00.058Z,2.97
2022-07-28T13:20:27.309Z,2.38
2022-07-28T13:22:54.612Z,2.75
2022-07-28T13:25:21.837Z,4.63
2022-07-28T13:27:55.130Z,3.47
2022-07-28T13:30:23.472Z,8.82
2022-07-28T13:32:50.459Z,2.30
2022-07-28T13:35:18.776Z,2.60
2022-07-28T13:37:45.706Z,3.55
2022-07-28T13:40:12.822Z,2.20
2022-07-28T13:42:39.537Z,3.13
2022-07-28T13:45:06.739Z,3.30
2022-07-28T13:47:35.473Z,2.65
2022-07-28T13:50:06.171Z,2.33
2022-07-28T13:52:35.253Z,3.22
2022-07-28T13:55:06.144Z,2.47
2022-07-28T13:57:36.725Z,3.20
2022-07-28T14:00:08.380Z,2.55
2022-07-28T14:02:35.894Z,2.03
2022-07-28T14:05:04.146Z,4.97
2022-07-28T14:07:30.895Z,2.50
2022-07-28T14:09:58.563Z,5.78
2022-07-28T14:12:26.262Z,3.72
2022-07-28T14:14:52.944Z,5.38
2022-07-28T14:20:10.484Z,3.63
2022-07-28T14:22:37.231Z,3.88
2022-07-28T14:25:04.349Z,2.85
2022-07-28T14:27:31.117Z,2.40
2022-07-28T14:29:58.047Z,2.53
2022-07-28T14:32:24.836Z,3.28
2022-07-28T14:34:51.738Z,3.38
2022-07-28T14:37:20.253Z,2.40
2022-07-28T14:39:46.972Z,2.53
2022-07-28T14:42:13.779Z,3.08
2022-07-28T14:44:40.505Z,2.20
2022-07-28T14:47:07.486Z,3.38
2022-07-28T14:49:37.016Z,3.65
2022-07-28T14:52:04.146Z,5.38
2022-07-28T14:54:32.832Z,3.15
2022-07-28T14:56:59.563Z,2.92
2022-07-28T14:59:26.315Z,3.42
2022-07-28T15:01:53.127Z,3.38
2022-07-28T15:04:19.974Z,2.50
2022-07-28T15:06:47.350Z,2.35
2022-07-28T15:09:14.834Z,3.65
2022-07-28T15:11:42.049Z,3.30
2022-07-28T15:14:08.790Z,4.60
2022-07-28T15:16:36.022Z,2.75
2022-07-28T15:19:02.902Z,2.70
2022-07-28T15:21:34.312Z,2.42
2022-07-28T15:24:03.645Z,3.40
2022-07-28T15:26:30.525Z,3.08
2022-07-28T15:28:57.549Z,3.25
2022-07-28T15:31:27.198Z,4.38
2022-07-28T15:33:58.055Z,2.90
2022-07-28T15:36:25.716Z,2.55
2022-07-28T15:38:53.667Z,4.32
2022-07-28T15:41:20.748Z,3.05
2022-07-28T15:43:47.646Z,3.90
2022-07-28T15:46:14.788Z,2.53
2022-07-28T15:48:44.548Z,4.38
2022-07-28T15:51:11.800Z,5.00
2022-07-28T15:53:38.857Z,5.28
2022-07-28T15:56:05.898Z,3.33
2022-07-28T15:58:33.089Z,2.40
2022-07-28T16:01:01.781Z,7.30
2022-07-28T16:03:29.723Z,2.40
2022-07-28T16:05:56.962Z,3.15
2022-07-28T16:08:23.863Z,5.47
2022-07-28T16:10:52.348Z,2.65
2022-07-28T16:13:28.590Z,2.45
2022-07-28T16:16:14.877Z,4.47
2022-07-28T16:18:43.757Z,2.50
2022-07-28T16:21:11.508Z,2.83
2022-07-28T16:23:38.356Z,3.67
2022-07-28T16:26:07.875Z,4.78
2022-07-28T16:28:35.219Z,4.13
2022-07-28T16:31:02.240Z,4.10
2022-07-28T16:33:33.330Z,3.33
2022-07-28T16:36:01.334Z,3.40
2022-07-28T16:38:28.105Z,3.13
2022-07-28T16:40:54.861Z,2.42
2022-07-28T16:43:21.561Z,5.43
2022-07-28T16:45:48.434Z,2.50
2022-07-28T16:48:15.246Z,5.00
2022-07-28T16:50:45.773Z,3.45
2022-07-28T16:53:13.839Z,3.20
2022-07-28T16:55:42.107Z,2.55
2022-07-28T16:58:08.909Z,2.63
2022-07-28T17:00:35.944Z,3.35
2022-07-28T17:03:02.740Z,2.65
2022-07-28T17:05:29.490Z,3.88
2022-07-28T17:07:56.208Z,4.55
2022-07-28T17:10:27.252Z,3.00
2022-07-28T17:12:54.879Z,3.50
2022-07-28T17:15:23.145Z,2.90
2022-07-28T17:17:54.132Z,3.38
2022-07-28T17:20:21.157Z,5.00
2022-07-28T17:22:48.254Z,3.30
2022-07-28T17:25:43.928Z,3.88
2022-07-28T17:28:02.770Z,3.78
2022-07-28T17:30:31.608Z,3.97
2022-07-28T17:33:07.891Z,2.78
2022-07-28T17:35:36.261Z,3.33
2022-07-28T17:38:04.536Z,5.88
2022-07-28T17:40:32.526Z,4.90
2022-07-28T17:42:59.494Z,2.83
2022-07-28T17:45:26.210Z,4.35
2022-07-28T17:47:52.930Z,3.80
2022-07-28T17:50:19.693Z,3.97
2022-07-28T17:52:46.962Z,4.05
2022-07-28T17:55:55.815Z,4.28
2022-07-28T17:58:31.966Z,4.13
2022-07-28T18:01:09.790Z,4.47
2022-07-28T18:03:57.608Z,5.43
2022-07-28T18:06:32.425Z,5.13
2022-07-28T18:09:05.723Z,7.35
2022-07-28T18:11:33.684Z,4.85
2022-07-28T18:14:04.584Z,6.13
2022-07-28T18:16:34.273Z,3.63
2022-07-28T18:19:02.387Z,4.57
2022-07-28T18:21:29.283Z,4.07
2022-07-28T18:23:55.987Z,2.88
2022-07-28T18:26:22.821Z,3.42
2022-07-28T18:28:49.810Z,2.83
2022-07-28T18:31:16.681Z,5.22
2022-07-28T18:33:43.989Z,5.32
2022-07-28T18:36:10.675Z,4.88
2022-07-28T18:38:37.414Z,3.28
2022-07-28T18:41:04.206Z,4.40
2022-07-28T18:43:31.129Z,3.05
2022-07-28T18:45:57.930Z,3.10
2022-07-28T18:48:25.508Z,1.90
2022-07-28T18:50:52.524Z,2.85
2022-07-28T18:53:19.386Z,2.08
2022-07-28T18:55:46.167Z,2.85
2022-07-28T18:58:12.848Z,4.05
2022-07-28T19:00:39.626Z,2.10
2022-07-28T19:03:06.371Z,1.95
2022-07-28T19:05:36.445Z,1.67
2022-07-28T19:08:04.762Z,2.15
2022-07-28T19:10:32.437Z,1.95
2022-07-28T19:12:59.537Z,4.47
2022-07-28T19:15:26.603Z,2.00
2022-07-28T19:18:11.210Z,2.05
2022-07-28T19:20:44.084Z,2.45
2022-07-28T19:23:10.935Z,1.55
2022-07-28T19:25:39.269Z,2.10
2022-07-28T19:28:06.542Z,2.20
2022-07-28T19:30:33.975Z,1.90
2022-07-28T19:33:00.878Z,1.70
2022-07-28T19:35:27.799Z,1.60
2022-07-28T19:37:59.565Z,2.78
2022-07-28T19:40:29.168Z,2.22
2022-07-28T19:42:57.477Z,1.77
2022-07-28T19:45:25.217Z,1.77
2022-07-28T19:47:52.094Z,3.58
2022-07-28T19:50:19.024Z,1.60
2022-07-28T19:52:46.041Z,2.40
2022-07-28T19:55:17.709Z,1.98
2022-07-28T19:57:47.507Z,2.40
2022-07-28T20:00:17.301Z,9.88
2022-07-28T20:02:44.187Z,6.15
2022-07-28T20:05:11.088Z,2.15
2022-07-28T20:07:38.111Z,4.07
2022-07-28T20:10:05.723Z,0.80
2022-07-28T20:12:36.359Z,1.50
2022-07-28T20:15:07.660Z,5.60
2022-07-28T20:17:39.291Z,0.85
2022-07-28T20:20:12.166Z,3.70
2022-07-28T20:25:09.526Z,4.85
2022-07-28T20:27:40.275Z,8.65
2022-07-28T20:30:09.623Z,8.65
2022-07-28T20:32:37.535Z,5.15
2022-07-28T20:35:05.804Z,4.63
2022-07-28T20:37:36.898Z,4.22
2022-07-28T20:40:05.882Z,7.55
2022-07-28T20:42:32.685Z,1.05
2022-07-28T20:44:59.388Z,3.15
2022-07-28T20:47:27.797Z,0.68
2022-07-28T20:49:55.209Z,0.50
2022-07-28T20:52:22.196Z,2.00
2022-07-28T20:54:54.012Z,1.50
2022-07-28T20:57:21.729Z,1.73
2022-07-28T20:59:50.959Z,0.60
2022-07-28T21:02:18.650Z,1.63
2022-07-28T21:04:45.412Z,0.70
2022-07-28T21:07:12.167Z,0.88
2022-07-28T21:09:39.837Z,0.73
2022-07-28T21:12:07.264Z,0.90
2022-07-28T21:14:34.078Z,1.63
2022-07-28T21:17:00.960Z,0.80
2022-07-28T21:19:27.831Z,1.38
2022-07-28T21:21:54.596Z,2.78
2022-07-28T21:24:21.328Z,1.15
2022-07-28T21:26:49.688Z,0.93
2022-07-28T21:32:03.556Z,1.13
2022-07-28T21:34:31.387Z,1.77
2022-07-28T21:37:01.151Z,1.83
2022-07-28T21:39:28.305Z,1.95
2022-07-28T21:41:55.088Z,0.98
2022-07-28T21:44:21.854Z,1.30
2022-07-28T21:46:48.664Z,1.55
2022-07-28T21:49:15.445Z,2.25
2022-07-28T21:51:42.503Z,1.20
2022-07-28T21:54:09.308Z,1.88
2022-07-28T21:56:36.033Z,2.45
2022-07-28T21:59:02.977Z,1.42
2022-07-28T22:01:30.433Z,1.85
2022-07-28T22:03:57.533Z,1.15
2022-07-28T22:06:24.247Z,0.80
2022-07-28T22:08:53.858Z,4.90
2022-07-28T22:11:23.700Z,1.95
2022-07-28T22:13:50.577Z,0.95
2022-07-28T22:16:17.313Z,1.20
2022-07-28T22:18:44.322Z,1.00
2022-07-28T22:21:11.168Z,2.28
2022-07-28T22:23:37.901Z,1.35
2022-07-28T22:26:04.624Z,0.80
2022-07-28T22:28:31.498Z,2.08
2022-07-28T22:31:09.191Z,0.40
2022-07-28T22:33:40.175Z,1.00
2022-07-28T22:36:08.618Z,0.85
2022-07-28T22:38:35.872Z,0.60
2022-07-28T22:41:03.033Z,1.13
2022-07-28T22:43:33.025Z,3.13
2022-07-28T22:45:59.984Z,0.80
2022-07-28T22:48:26.891Z,0.85
2022-07-28T22:50:53.581Z,0.70
2022-07-28T22:53:20.293Z,1.25
2022-07-28T22:55:47.117Z,0.85
2022-07-28T22:58:13.896Z,0.65
2022-07-28T23:00:40.674Z,2.40
2022-07-28T23:03:07.539Z,1.63
2022-07-28T23:05:38.546Z,2.25
2022-07-28T23:08:06.216Z,2.05
2022-07-28T23:10:33.225Z,0.73
2022-07-28T23:13:00.290Z,1.48
2022-07-28T23:15:39.451Z,1.63
2022-07-28T23:18:11.752Z,1.05
2022-07-28T23:20:39.790Z,3.25
2022-07-28T23:23:07.097Z,1.88
2022-07-28T23:25:36.283Z,1.65
2022-07-28T23:28:03.443Z,1.13
2022-07-28T23:30:30.185Z,5.25
2022-07-28T23:32:56.915Z,0.77
2022-07-28T23:35:23.701Z,0.82
2022-07-28T23:37:50.471Z,1.05
2022-07-28T23:40:17.272Z,1.80
2022-07-28T23:42:44.082Z,2.40
2022-07-28T23:45:11.131Z,1.33
2022-07-28T23:47:37.906Z,0.93
2022-07-28T23:50:05.706Z,2.10
2022-07-28T23:52:32.516Z,1.23
2022-07-28T23:54:59.190Z,1.95
2022-07-28T23:57:31.112Z,0.80
2022-07-28T23:59:59.282Z,0.80
